createdAt,value
2018-09-30T00:00:43.759Z,988.01
2018-09-30T00:01:43.720Z,987.99
2018-09-30T00:02:43.674Z,987.95
2018-09-30T00:03:43.636Z,987.94
2018-09-30T00:04:43.596Z,987.93
2018-09-30T00:05:43.554Z,987.90
2018-09-30T00:06:43.521Z,987.89
2018-09-30T00:07:43.479Z,987.85
2018-09-30T00:08:43.446Z,987.85
2018-09-30T00:09:43.399Z,987.84
2018-09-30T00:10:43.355Z,987.84
2018-09-30T00:11:43.316Z,987.85
2018-09-30T00:12:43.278Z,987.83
2018-09-30T00:13:43.239Z,987.81
2018-09-30T00:14:43.194Z,987.82
2018-09-30T00:15:43.155Z,987.79
2018-09-30T00:16:43.120Z,987.76
2018-09-30T00:17:43.072Z,987.79
2018-09-30T00:18:43.038Z,987.78
2018-09-30T00:19:42.996Z,987.77
2018-09-30T00:20:42.957Z,987.71
2018-09-30T00:21:42.918Z,987.75
2018-09-30T00:22:42.875Z,987.71
2018-09-30T00:23:42.839Z,987.73
2018-09-30T00:24:42.794Z,987.69
2018-09-30T00:25:42.751Z,987.69
2018-09-30T00:26:42.721Z,987.64
2018-09-30T00:27:42.677Z,987.59
2018-09-30T00:28:42.633Z,987.60
2018-09-30T00:29:42.590Z,987.59
2018-09-30T00:30:42.557Z,987.60
2018-09-30T00:31:42.514Z,987.62
2018-09-30T00:32:42.477Z,987.61
2018-09-30T00:33:42.436Z,987.60
2018-09-30T00:34:42.390Z,987.60
2018-09-30T00:35:42.353Z,987.62
2018-09-30T00:36:42.311Z,987.57
2018-09-30T00:37:42.268Z,987.58
2018-09-30T00:38:42.235Z,987.55
2018-09-30T00:39:42.193Z,987.55
2018-09-30T00:40:42.153Z,987.52
2018-09-30T00:41:42.112Z,987.53
2018-09-30T00:42:42.068Z,987.49
2018-09-30T00:43:42.031Z,987.54
2018-09-30T00:44:41.991Z,987.54
2018-09-30T00:45:41.951Z,987.55
2018-09-30T00:46:41.907Z,987.59
2018-09-30T00:47:41.867Z,987.55
2018-09-30T00:48:41.831Z,987.58
2018-09-30T00:49:41.785Z,987.59
2018-09-30T00:50:41.750Z,987.60
2018-09-30T00:51:41.711Z,987.64
2018-09-30T00:52:41.669Z,987.56
2018-09-30T00:53:41.630Z,987.53
2018-09-30T00:54:41.583Z,987.51
2018-09-30T00:55:41.544Z,987.52
2018-09-30T00:56:41.505Z,987.50
2018-09-30T00:57:41.467Z,987.53
2018-09-30T00:58:41.427Z,987.49
2018-09-30T00:59:41.386Z,987.49
2018-09-30T01:00:41.345Z,987.49
2018-09-30T01:01:41.299Z,987.47
2018-09-30T01:02:41.266Z,987.48
2018-09-30T01:03:41.226Z,987.46
2018-09-30T01:04:41.185Z,987.43
2018-09-30T01:05:41.144Z,987.39
2018-09-30T01:06:41.098Z,987.37
2018-09-30T01:07:41.059Z,987.33
2018-09-30T01:08:41.020Z,987.33
2018-09-30T01:09:40.976Z,987.30
2018-09-30T01:10:40.946Z,987.31
2018-09-30T01:11:40.901Z,987.29
2018-09-30T01:12:40.863Z,987.27
2018-09-30T01:13:40.821Z,987.27
2018-09-30T01:14:40.775Z,987.27
2018-09-30T01:15:40.736Z,987.27
2018-09-30T01:16:40.700Z,987.32
2018-09-30T01:17:40.659Z,987.35
2018-09-30T01:18:40.618Z,987.26
2018-09-30T01:19:40.577Z,987.30
2018-09-30T01:20:40.536Z,987.25
2018-09-30T01:21:40.491Z,987.25
2018-09-30T01:22:40.457Z,987.21
2018-09-30T01:23:40.415Z,987.20
2018-09-30T01:24:40.375Z,987.16
2018-09-30T01:25:40.335Z,987.15
2018-09-30T01:26:40.289Z,987.12
2018-09-30T01:27:40.253Z,987.08
2018-09-30T01:28:40.210Z,987.10
2018-09-30T01:29:40.167Z,987.07
2018-09-30T01:30:40.133Z,987.02
2018-09-30T01:31:40.093Z,987.03
2018-09-30T01:32:40.049Z,987.02
2018-09-30T01:33:40.006Z,986.99
2018-09-30T01:34:39.972Z,987.01
2018-09-30T01:35:39.928Z,987.02
2018-09-30T01:36:39.889Z,986.97
2018-09-30T01:37:39.848Z,987.00
2018-09-30T01:38:39.805Z,987.00
2018-09-30T01:39:39.764Z,987.00
2018-09-30T01:40:39.724Z,986.98
2018-09-30T01:41:39.680Z,986.94
2018-09-30T01:42:39.650Z,987.02
2018-09-30T01:43:39.605Z,987.00
2018-09-30T01:44:39.564Z,986.97
2018-09-30T01:45:39.524Z,986.94
2018-09-30T01:46:39.479Z,986.96
2018-09-30T01:47:39.442Z,986.94
2018-09-30T01:48:39.403Z,986.98
2018-09-30T01:49:39.362Z,986.90
2018-09-30T01:50:39.315Z,986.91
2018-09-30T01:51:39.277Z,986.90
2018-09-30T01:52:39.237Z,986.88
2018-09-30T01:53:39.194Z,986.86
2018-09-30T01:54:39.159Z,986.93
2018-09-30T01:55:39.117Z,986.91
2018-09-30T01:56:39.079Z,986.90
2018-09-30T01:57:39.039Z,986.86
2018-09-30T01:58:38.990Z,986.85
2018-09-30T01:59:38.952Z,986.86
2018-09-30T02:00:38.912Z,986.87
2018-09-30T02:01:38.870Z,986.84
2018-09-30T02:02:38.833Z,986.84
2018-09-30T02:03:38.792Z,986.84
2018-09-30T02:04:38.750Z,986.84
2018-09-30T02:05:38.705Z,986.80
2018-09-30T02:06:38.674Z,986.82
2018-09-30T02:07:38.628Z,986.80
2018-09-30T02:08:38.588Z,986.77
2018-09-30T02:09:38.548Z,986.77
2018-09-30T02:10:38.503Z,986.74
2018-09-30T02:11:38.463Z,986.74
2018-09-30T02:12:38.424Z,986.74
2018-09-30T02:13:38.379Z,986.72
2018-09-30T02:14:38.352Z,986.70
2018-09-30T02:15:38.302Z,986.63
2018-09-30T02:16:38.262Z,986.64
2018-09-30T02:17:38.227Z,986.65
2018-09-30T02:18:38.175Z,986.67
2018-09-30T02:19:38.137Z,986.64
2018-09-30T02:20:38.098Z,986.62
2018-09-30T02:21:38.058Z,986.64
2018-09-30T02:22:38.012Z,986.56
2018-09-30T02:23:37.973Z,986.58
2018-09-30T02:24:37.936Z,986.57
2018-09-30T02:25:37.889Z,986.53
2018-09-30T02:26:37.858Z,986.52
2018-09-30T02:27:37.814Z,986.47
2018-09-30T02:28:37.771Z,986.47
2018-09-30T02:29:37.735Z,986.45
2018-09-30T02:30:37.688Z,986.42
2018-09-30T02:31:37.646Z,986.32
2018-09-30T02:32:37.606Z,986.37
2018-09-30T02:33:37.563Z,986.35
2018-09-30T02:34:37.529Z,986.35
2018-09-30T02:35:37.485Z,986.25
2018-09-30T02:36:37.443Z,986.23
2018-09-30T02:37:37.399Z,986.22
2018-09-30T02:38:37.364Z,986.23
2018-09-30T02:39:37.324Z,986.23
2018-09-30T02:40:37.283Z,986.22
2018-09-30T02:41:37.252Z,986.20
2018-09-30T02:42:37.195Z,986.22
2018-09-30T02:43:37.160Z,986.14
2018-09-30T02:44:37.119Z,986.11
2018-09-30T02:45:37.088Z,986.16
2018-09-30T02:46:37.033Z,986.11
2018-09-30T02:47:36.997Z,986.14
2018-09-30T02:48:36.953Z,986.11
2018-09-30T02:49:36.909Z,986.14
2018-09-30T02:50:36.909Z,986.11
2018-09-30T02:51:36.832Z,986.09
2018-09-30T02:52:36.793Z,986.10
2018-09-30T02:53:36.745Z,986.06
2018-09-30T02:54:36.710Z,986.06
2018-09-30T02:55:36.668Z,986.07
2018-09-30T02:56:36.628Z,986.01
2018-09-30T02:57:36.586Z,985.99
2018-09-30T02:58:36.543Z,985.97
2018-09-30T02:59:36.520Z,985.99
2018-09-30T03:00:36.462Z,986.02
2018-09-30T03:01:36.420Z,986.03
2018-09-30T03:02:36.387Z,985.99
2018-09-30T03:03:36.341Z,985.96
2018-09-30T03:04:36.303Z,985.95
2018-09-30T03:05:36.264Z,985.92
2018-09-30T03:06:36.215Z,985.91
2018-09-30T03:07:36.177Z,985.90
2018-09-30T03:08:36.140Z,985.89
2018-09-30T03:09:36.100Z,985.91
2018-09-30T03:10:36.052Z,985.88
2018-09-30T03:11:36.017Z,985.87
2018-09-30T03:12:35.975Z,985.91
2018-09-30T03:13:35.930Z,985.88
2018-09-30T03:14:35.894Z,985.90
2018-09-30T03:15:35.855Z,985.87
2018-09-30T03:16:35.812Z,985.90
2018-09-30T03:17:35.778Z,985.88
2018-09-30T03:18:35.727Z,985.85
2018-09-30T03:19:35.693Z,985.85
2018-09-30T03:20:35.646Z,985.87
2018-09-30T03:21:35.604Z,985.86
2018-09-30T03:22:35.568Z,985.81
2018-09-30T03:23:35.527Z,985.81
2018-09-30T03:24:35.488Z,985.79
2018-09-30T03:25:35.445Z,985.81
2018-09-30T03:26:35.408Z,985.79
2018-09-30T03:27:35.369Z,985.79
2018-09-30T03:28:35.322Z,985.73
2018-09-30T03:29:35.283Z,985.77
2018-09-30T03:30:35.249Z,985.75
2018-09-30T03:31:35.199Z,985.73
2018-09-30T03:32:35.160Z,985.74
2018-09-30T03:33:35.115Z,985.71
2018-09-30T03:34:35.081Z,985.71
2018-09-30T03:35:35.039Z,985.69
2018-09-30T03:36:34.998Z,985.71
2018-09-30T03:37:34.959Z,985.71
2018-09-30T03:38:34.912Z,985.67
2018-09-30T03:39:34.887Z,985.71
2018-09-30T03:40:34.834Z,985.68
2018-09-30T03:41:34.795Z,985.66
2018-09-30T03:42:34.747Z,985.69
2018-09-30T03:43:34.714Z,985.66
2018-09-30T03:44:34.668Z,985.69
2018-09-30T03:45:34.626Z,985.68
2018-09-30T03:46:34.592Z,985.65
2018-09-30T03:47:34.593Z,985.59
2018-09-30T03:48:34.508Z,985.60
2018-09-30T03:49:34.471Z,985.58
2018-09-30T03:50:34.423Z,985.61
2018-09-30T03:51:34.399Z,985.60
2018-09-30T03:52:34.343Z,985.60
2018-09-30T04:06:40.140Z,985.40
2018-09-30T04:07:40.051Z,985.36
2018-09-30T04:08:40.003Z,985.35
2018-09-30T04:09:40.068Z,985.32
2018-09-30T04:10:39.920Z,985.33
2018-09-30T04:11:39.875Z,985.28
2018-09-30T04:12:39.829Z,985.29
2018-09-30T04:13:39.796Z,985.29
2018-09-30T04:14:39.751Z,985.31
2018-09-30T04:15:39.706Z,985.26
2018-09-30T04:16:39.669Z,985.29
2018-09-30T04:17:39.620Z,985.27
2018-09-30T04:18:39.577Z,985.23
2018-09-30T04:19:39.533Z,985.23
2018-09-30T04:20:39.497Z,985.27
2018-09-30T04:21:39.455Z,985.26
2018-09-30T04:22:39.415Z,985.30
2018-09-30T04:23:39.373Z,985.28
2018-09-30T04:24:39.331Z,985.28
2018-09-30T04:25:39.286Z,985.29
2018-09-30T04:26:39.244Z,985.31
2018-09-30T04:27:39.208Z,985.32
2018-09-30T04:28:39.166Z,985.34
2018-09-30T04:29:39.123Z,985.31
2018-09-30T04:30:39.081Z,985.30
2018-09-30T04:31:39.040Z,985.28
2018-09-30T04:32:39.008Z,985.29
2018-09-30T04:33:38.958Z,985.29
2018-09-30T04:34:38.918Z,985.30
2018-09-30T04:35:38.877Z,985.31
2018-09-30T04:36:38.837Z,985.32
2018-09-30T04:37:38.792Z,985.26
2018-09-30T04:38:38.749Z,985.18
2018-09-30T04:39:38.709Z,985.17
2018-09-30T04:40:38.667Z,985.16
2018-09-30T04:41:38.628Z,985.17
2018-09-30T04:42:38.591Z,985.19
2018-09-30T04:43:38.542Z,985.15
2018-09-30T04:44:38.504Z,985.10
2018-09-30T04:45:38.467Z,985.12
2018-09-30T04:46:38.425Z,985.10
2018-09-30T04:47:38.389Z,985.10
2018-09-30T04:48:38.345Z,985.06
2018-09-30T04:49:38.352Z,985.06
2018-09-30T04:50:38.255Z,985.06
2018-09-30T04:51:38.212Z,985.02
2018-09-30T04:52:38.173Z,985.01
2018-09-30T04:53:38.135Z,985.00
2018-09-30T04:54:38.109Z,985.03
2018-09-30T04:55:38.057Z,985.01
2018-09-30T04:56:38.015Z,984.99
2018-09-30T04:57:37.968Z,985.00
2018-09-30T04:58:37.930Z,984.99
2018-09-30T04:59:37.889Z,985.05
2018-09-30T05:00:37.847Z,985.02
2018-09-30T05:01:37.804Z,985.03
2018-09-30T05:02:37.760Z,984.99
2018-09-30T05:03:37.721Z,985.00
2018-09-30T05:04:37.685Z,984.99
2018-09-30T05:05:37.674Z,984.99
2018-09-30T05:06:37.602Z,985.03
2018-09-30T05:07:37.568Z,985.01
2018-09-30T05:08:37.517Z,985.07
2018-09-30T05:09:37.475Z,985.04
2018-09-30T05:10:37.430Z,985.03
2018-09-30T05:11:37.394Z,985.01
2018-09-30T05:12:37.369Z,984.98
2018-09-30T05:13:37.312Z,985.01
2018-09-30T05:14:37.272Z,985.00
2018-09-30T05:15:37.226Z,985.01
2018-09-30T05:16:37.188Z,985.00
2018-09-30T05:17:37.152Z,984.99
2018-09-30T05:18:37.108Z,984.97
2018-09-30T05:19:37.073Z,984.97
2018-09-30T05:20:37.025Z,984.95
2018-09-30T05:21:36.986Z,984.93
2018-09-30T05:22:36.939Z,984.89
2018-09-30T05:23:36.897Z,984.87
2018-09-30T05:24:36.858Z,984.90
2018-09-30T05:25:36.829Z,984.91
2018-09-30T05:26:36.783Z,984.89
2018-09-30T05:27:36.738Z,984.89
2018-09-30T05:28:36.695Z,984.85
2018-09-30T05:29:36.652Z,984.89
2018-09-30T05:30:36.608Z,984.85
2018-09-30T05:31:36.573Z,984.86
2018-09-30T05:32:36.533Z,984.86
2018-09-30T05:33:36.488Z,984.85
2018-09-30T05:34:36.446Z,984.87
2018-09-30T05:35:36.402Z,984.90
2018-09-30T05:36:36.363Z,984.89
2018-09-30T05:37:36.325Z,984.90
2018-09-30T05:38:36.284Z,984.89
2018-09-30T05:39:36.249Z,984.85
2018-09-30T05:40:36.207Z,984.85
2018-09-30T05:41:36.163Z,984.84
2018-09-30T05:42:36.116Z,984.83
2018-09-30T05:43:36.074Z,984.84
2018-09-30T05:44:36.033Z,984.83
2018-09-30T05:45:35.995Z,984.82
2018-09-30T05:46:35.955Z,984.76
2018-09-30T05:47:35.907Z,984.79
2018-09-30T05:48:35.868Z,984.76
2018-09-30T05:49:35.833Z,984.77
2018-09-30T05:50:35.794Z,984.78
2018-09-30T05:51:35.748Z,984.82
2018-09-30T05:52:35.705Z,984.83
2018-09-30T05:53:35.665Z,984.86
2018-09-30T05:54:35.623Z,984.87
2018-09-30T05:55:35.581Z,984.88
2018-09-30T05:56:35.538Z,984.85
2018-09-30T05:57:35.558Z,984.85
2018-09-30T05:58:35.462Z,984.87
2018-09-30T05:59:35.421Z,984.87
2018-09-30T06:00:35.376Z,984.92
2018-09-30T06:01:35.336Z,984.94
2018-09-30T06:02:35.289Z,984.95
2018-09-30T06:03:35.254Z,984.92
2018-09-30T06:04:35.216Z,984.90
2018-09-30T06:05:35.168Z,984.90
2018-09-30T06:06:35.125Z,984.92
2018-09-30T06:07:35.083Z,984.92
2018-09-30T06:08:35.045Z,984.90
2018-09-30T06:09:35.039Z,984.96
2018-09-30T06:10:34.965Z,984.99
2018-09-30T06:11:34.924Z,984.97
2018-09-30T06:12:34.884Z,984.98
2018-09-30T06:13:34.845Z,984.97
2018-09-30T06:14:34.795Z,984.94
2018-09-30T06:15:34.755Z,984.97
2018-09-30T06:16:34.715Z,984.98
2018-09-30T06:17:34.679Z,984.94
2018-09-30T06:18:34.636Z,984.97
2018-09-30T06:19:34.590Z,984.97
2018-09-30T06:20:34.564Z,985.00
2018-09-30T06:21:34.512Z,985.01
2018-09-30T06:22:34.486Z,984.98
2018-09-30T06:23:34.432Z,985.00
2018-09-30T06:24:34.389Z,985.03
2018-09-30T06:25:34.347Z,985.05
2018-09-30T06:26:34.303Z,985.05
2018-09-30T06:27:34.268Z,985.08
2018-09-30T06:28:34.226Z,985.07
2018-09-30T06:29:34.186Z,985.03
2018-09-30T06:30:34.146Z,985.01
2018-09-30T06:31:34.162Z,985.01
2018-09-30T06:32:34.418Z,985.02
2018-09-30T06:33:34.023Z,985.02
2018-09-30T06:34:33.978Z,985.06
2018-09-30T06:35:33.945Z,985.04
2018-09-30T06:36:33.907Z,985.03
2018-09-30T06:37:33.867Z,985.08
2018-09-30T06:38:33.814Z,985.04
2018-09-30T06:39:33.773Z,985.09
2018-09-30T06:40:33.738Z,985.08
2018-09-30T06:41:33.698Z,985.06
2018-09-30T06:42:33.658Z,985.05
2018-09-30T06:43:33.616Z,985.03
2018-09-30T06:44:33.574Z,985.01
2018-09-30T06:45:33.610Z,985.02
2018-09-30T06:46:33.490Z,985.02
2018-09-30T06:47:33.450Z,985.05
2018-09-30T06:48:33.411Z,985.05
2018-09-30T06:49:33.374Z,985.06
2018-09-30T06:50:33.371Z,985.04
2018-09-30T06:51:33.289Z,984.99
2018-09-30T06:52:33.255Z,984.99
2018-09-30T06:53:33.212Z,985.02
2018-09-30T06:54:33.179Z,985.06
2018-09-30T06:55:33.133Z,985.05
2018-09-30T06:56:33.090Z,985.06
2018-09-30T06:57:33.048Z,985.05
2018-09-30T06:58:33.005Z,985.09
2018-09-30T06:59:32.966Z,985.04
2018-09-30T07:00:32.926Z,985.02
2018-09-30T07:01:32.890Z,985.06
2018-09-30T07:02:32.850Z,985.08
2018-09-30T07:03:32.812Z,985.13
2018-09-30T07:04:32.768Z,985.11
2018-09-30T07:05:32.732Z,985.13
2018-09-30T07:06:32.687Z,985.15
2018-09-30T07:07:32.651Z,985.18
2018-09-30T07:08:32.608Z,985.20
2018-09-30T07:09:32.566Z,985.19
2018-09-30T07:10:32.540Z,985.20
2018-09-30T07:11:32.484Z,985.18
2018-09-30T07:12:32.450Z,985.15
2018-09-30T07:13:32.412Z,985.16
2018-09-30T07:14:32.373Z,985.13
2018-09-30T07:15:32.333Z,985.16
2018-09-30T07:16:32.290Z,985.21
2018-09-30T07:17:32.246Z,985.17
2018-09-30T07:18:32.207Z,985.17
2018-09-30T07:19:32.251Z,985.19
2018-09-30T07:20:32.141Z,985.16
2018-09-30T07:21:32.090Z,985.23
2018-09-30T07:22:32.057Z,985.22
2018-09-30T07:23:32.006Z,985.25
2018-09-30T07:24:31.982Z,985.25
2018-09-30T07:25:31.932Z,985.28
2018-09-30T07:26:31.895Z,985.32
2018-09-30T07:27:31.854Z,985.33
2018-09-30T07:28:31.835Z,985.36
2018-09-30T07:29:31.801Z,985.37
2018-09-30T07:30:31.746Z,985.38
2018-09-30T07:31:31.689Z,985.37
2018-09-30T07:32:31.651Z,985.36
2018-09-30T07:33:31.614Z,985.37
2018-09-30T07:34:31.580Z,985.42
2018-09-30T07:35:31.791Z,985.44
2018-09-30T07:36:31.497Z,985.45
2018-09-30T07:37:31.455Z,985.48
2018-09-30T07:38:31.412Z,985.49
2018-09-30T07:39:31.385Z,985.52
2018-09-30T07:40:31.385Z,985.55
2018-09-30T07:41:31.300Z,985.56
2018-09-30T07:42:31.256Z,985.56
2018-09-30T07:43:31.216Z,985.51
2018-09-30T07:44:31.198Z,985.54
2018-09-30T07:45:31.142Z,985.52
2018-09-30T07:46:31.118Z,985.51
2018-09-30T07:47:31.067Z,985.48
2018-09-30T07:48:31.029Z,985.51
2018-09-30T07:49:30.992Z,985.51
2018-09-30T07:50:30.942Z,985.53
2018-09-30T07:51:30.906Z,985.56
2018-09-30T07:52:30.870Z,985.53
2018-09-30T07:53:30.829Z,985.52
2018-09-30T07:54:30.792Z,985.51
2018-09-30T07:55:30.743Z,985.54
2018-09-30T07:56:30.711Z,985.51
2018-09-30T07:57:30.678Z,985.53
2018-09-30T07:58:30.639Z,985.52
2018-09-30T07:59:30.594Z,985.49
2018-09-30T08:00:30.553Z,985.49
2018-09-30T08:01:30.514Z,985.48
2018-09-30T08:02:30.470Z,985.46
2018-09-30T08:03:30.433Z,985.48
2018-09-30T08:04:30.394Z,985.46
2018-09-30T08:05:30.359Z,985.45
2018-09-30T08:06:30.407Z,985.41
2018-09-30T08:07:30.285Z,985.41
2018-09-30T08:08:30.240Z,985.42
2018-09-30T08:09:30.198Z,985.42
2018-09-30T08:10:30.157Z,985.41
2018-09-30T08:11:30.126Z,985.36
2018-09-30T08:12:30.092Z,985.37
2018-09-30T08:13:30.044Z,985.36
2018-09-30T08:14:30.004Z,985.35
2018-09-30T08:15:29.969Z,985.39
2018-09-30T08:16:29.992Z,985.35
2018-09-30T08:17:29.892Z,985.36
2018-09-30T08:18:29.855Z,985.38
2018-09-30T08:19:29.815Z,985.33
2018-09-30T08:20:29.780Z,985.33
2018-09-30T08:21:29.734Z,985.34
2018-09-30T08:22:29.692Z,985.37
2018-09-30T08:23:29.654Z,985.37
2018-09-30T08:24:29.708Z,985.37
2018-09-30T08:25:29.582Z,985.35
2018-09-30T08:26:29.547Z,985.40
2018-09-30T08:27:29.503Z,985.42
2018-09-30T08:28:29.464Z,985.40
2018-09-30T08:29:29.445Z,985.39
2018-09-30T08:30:29.391Z,985.38
2018-09-30T08:31:29.356Z,985.36
2018-09-30T08:32:29.319Z,985.38
2018-09-30T08:33:29.271Z,985.35
2018-09-30T08:34:29.232Z,985.36
2018-09-30T08:35:29.199Z,985.37
2018-09-30T08:36:29.158Z,985.34
2018-09-30T08:37:29.127Z,985.35
2018-09-30T08:38:29.080Z,985.30
2018-09-30T08:39:29.092Z,985.31
2018-09-30T08:40:29.013Z,985.34
2018-09-30T08:41:28.964Z,985.32
2018-09-30T08:42:28.929Z,985.30
2018-09-30T08:43:28.892Z,985.33
2018-09-30T08:44:28.860Z,985.32
2018-09-30T08:45:28.812Z,985.30
2018-09-30T08:46:28.777Z,985.29
2018-09-30T08:47:28.814Z,985.28
2018-09-30T08:48:28.705Z,985.29
2018-09-30T08:49:28.666Z,985.32
2018-09-30T08:50:28.627Z,985.29
2018-09-30T08:51:28.586Z,985.31
2018-09-30T08:52:28.550Z,985.27
2018-09-30T08:53:28.525Z,985.28
2018-09-30T08:54:28.479Z,985.30
2018-09-30T08:55:28.433Z,985.28
2018-09-30T08:56:28.401Z,985.27
2018-09-30T08:57:28.361Z,985.29
2018-09-30T08:58:28.321Z,985.24
2018-09-30T08:59:28.282Z,985.27
2018-09-30T09:00:28.243Z,985.25
2018-09-30T09:01:28.215Z,985.25
2018-09-30T09:02:28.174Z,985.23
2018-09-30T09:03:28.134Z,985.26
2018-09-30T09:04:28.099Z,985.23
2018-09-30T09:05:28.056Z,985.25
2018-09-30T09:06:28.018Z,985.23
2018-09-30T09:07:28.027Z,985.18
2018-09-30T09:08:27.941Z,985.24
2018-09-30T09:09:27.914Z,985.20
2018-09-30T09:10:27.869Z,985.22
2018-09-30T09:11:27.831Z,985.20
2018-09-30T09:12:27.797Z,985.17
2018-09-30T09:13:27.753Z,985.19
2018-09-30T09:14:27.716Z,985.18
2018-09-30T09:15:27.705Z,985.21
2018-09-30T09:16:27.647Z,985.21
2018-09-30T09:17:27.604Z,985.19
2018-09-30T09:18:27.566Z,985.19
2018-09-30T09:19:27.531Z,985.16
2018-09-30T09:20:27.490Z,985.16
2018-09-30T09:21:27.459Z,985.14
2018-09-30T09:22:27.492Z,985.13
2018-09-30T09:23:27.382Z,985.13
2018-09-30T09:24:27.353Z,985.16
2018-09-30T09:25:27.303Z,985.15
2018-09-30T09:26:27.268Z,985.14
2018-09-30T09:27:27.231Z,985.13
2018-09-30T09:28:27.192Z,985.09
2018-09-30T09:29:27.161Z,985.11
2018-09-30T09:30:27.120Z,985.08
2018-09-30T09:31:27.133Z,985.10
2018-09-30T09:32:27.042Z,985.10
2018-09-30T09:33:27.011Z,985.17
2018-09-30T09:34:26.974Z,985.14
2018-09-30T09:35:26.935Z,985.15
2018-09-30T09:36:26.901Z,985.17
2018-09-30T09:37:26.859Z,985.15
2018-09-30T09:38:26.878Z,985.20
2018-09-30T09:39:26.783Z,985.16
2018-09-30T09:40:26.745Z,985.15
2018-09-30T09:41:26.717Z,985.17
2018-09-30T09:42:26.673Z,985.21
2018-09-30T09:43:26.642Z,985.15
2018-09-30T09:44:26.604Z,985.15
2018-09-30T09:45:26.560Z,985.14
2018-09-30T09:46:26.524Z,985.13
2018-09-30T09:47:26.490Z,985.17
2018-09-30T09:48:26.454Z,985.12
2018-09-30T09:49:26.414Z,985.09
2018-09-30T09:50:26.377Z,985.11
2018-09-30T09:51:26.339Z,985.10
2018-09-30T09:52:26.305Z,985.10
2018-09-30T09:53:26.270Z,985.05
2018-09-30T09:54:26.231Z,985.11
2018-09-30T09:55:26.194Z,985.05
2018-09-30T09:56:26.160Z,985.04
2018-09-30T09:57:26.115Z,985.03
2018-09-30T09:58:26.081Z,985.00
2018-09-30T09:59:26.134Z,985.00
2018-09-30T10:00:26.008Z,985.02
2018-09-30T10:01:25.977Z,984.99
2018-09-30T10:02:25.938Z,984.99
2018-09-30T10:03:25.897Z,984.95
2018-09-30T10:04:25.859Z,984.96
2018-09-30T10:05:25.831Z,984.92
2018-09-30T10:06:25.790Z,984.93
2018-09-30T10:21:04.964Z,984.93
2018-09-30T10:22:04.889Z,984.88
2018-09-30T10:23:04.846Z,984.85
2018-09-30T10:24:04.804Z,984.83
2018-09-30T10:25:04.761Z,984.86
2018-09-30T10:26:04.728Z,984.86
2018-09-30T10:27:04.685Z,984.84
2018-09-30T10:28:04.646Z,984.80
2018-09-30T10:29:04.603Z,984.81
2018-09-30T10:30:04.567Z,984.75
2018-09-30T10:31:04.529Z,984.70
2018-09-30T10:32:04.491Z,984.69
2018-09-30T10:33:04.461Z,984.71
2018-09-30T10:34:04.419Z,984.66
2018-09-30T10:35:04.377Z,984.69
2018-09-30T10:36:04.343Z,984.66
2018-09-30T10:37:04.301Z,984.63
2018-09-30T10:38:04.261Z,984.63
2018-09-30T10:39:04.320Z,984.59
2018-09-30T10:40:04.193Z,984.59
2018-09-30T10:41:04.158Z,984.61
2018-09-30T10:42:04.113Z,984.62
2018-09-30T10:43:04.078Z,984.56
2018-09-30T10:44:04.046Z,984.60
2018-09-30T10:45:04.008Z,984.61
2018-09-30T10:46:03.970Z,984.58
2018-09-30T10:47:03.934Z,984.55
2018-09-30T10:48:03.893Z,984.54
2018-09-30T10:49:03.854Z,984.50
2018-09-30T10:50:03.818Z,984.46
2018-09-30T10:51:03.782Z,984.49
2018-09-30T10:52:03.748Z,984.48
2018-09-30T10:53:03.721Z,984.44
2018-09-30T10:54:03.678Z,984.45
2018-09-30T10:55:03.640Z,984.42
2018-09-30T10:56:03.601Z,984.41
2018-09-30T10:57:03.571Z,984.38
2018-09-30T10:58:03.536Z,984.36
2018-09-30T10:59:03.496Z,984.40
2018-09-30T11:00:03.454Z,984.42
2018-09-30T11:01:03.417Z,984.39
2018-09-30T11:02:03.381Z,984.34
2018-09-30T11:03:03.347Z,984.38
2018-09-30T11:04:03.312Z,984.33
2018-09-30T11:05:03.277Z,984.31
2018-09-30T11:06:03.243Z,984.30
2018-09-30T11:07:03.203Z,984.30
2018-09-30T11:08:03.165Z,984.27
2018-09-30T11:09:03.129Z,984.24
2018-09-30T11:10:03.155Z,984.26
2018-09-30T11:11:03.058Z,984.21
2018-09-30T11:12:03.023Z,984.22
2018-09-30T11:13:02.988Z,984.18
2018-09-30T11:14:02.946Z,984.15
2018-09-30T11:15:02.915Z,984.20
2018-09-30T11:16:02.938Z,984.15
2018-09-30T11:17:02.845Z,984.11
2018-09-30T11:18:02.809Z,984.10
2018-09-30T11:19:02.770Z,984.13
2018-09-30T11:20:02.736Z,984.10
2018-09-30T11:21:02.696Z,984.11
2018-09-30T11:22:02.663Z,984.07
2018-09-30T11:23:02.627Z,984.05
2018-09-30T11:24:02.591Z,984.02
2018-09-30T11:25:02.551Z,983.99
2018-09-30T11:26:02.515Z,984.00
2018-09-30T11:27:02.481Z,983.99
2018-09-30T11:28:02.445Z,983.98
2018-09-30T11:29:02.413Z,984.00
2018-09-30T11:30:02.371Z,984.02
2018-09-30T11:31:02.334Z,983.97
2018-09-30T11:32:02.302Z,983.96
2018-09-30T11:33:02.277Z,983.97
2018-09-30T11:34:02.233Z,983.99
2018-09-30T11:35:02.196Z,983.98
2018-09-30T11:36:02.155Z,984.00
2018-09-30T11:37:02.122Z,983.98
2018-09-30T11:38:02.090Z,983.96
2018-09-30T11:39:02.049Z,983.90
2018-09-30T11:40:02.016Z,983.86
2018-09-30T11:41:01.990Z,983.84
2018-09-30T11:42:01.944Z,983.87
2018-09-30T11:43:01.911Z,983.88
2018-09-30T11:44:01.870Z,983.88
2018-09-30T11:45:01.831Z,983.87
2018-09-30T11:46:01.801Z,983.81
2018-09-30T11:47:01.767Z,983.80
2018-09-30T11:48:01.724Z,983.76
2018-09-30T11:49:01.692Z,983.73
2018-09-30T11:50:01.652Z,983.74
2018-09-30T11:51:01.621Z,983.70
2018-09-30T11:52:01.586Z,983.71
2018-09-30T11:53:01.553Z,983.66
2018-09-30T11:54:01.516Z,983.65
2018-09-30T11:55:01.479Z,983.62
2018-09-30T11:56:01.441Z,983.64
2018-09-30T11:57:01.404Z,983.65
2018-09-30T11:58:01.370Z,983.58
2018-09-30T11:59:01.339Z,983.61
2018-09-30T12:00:01.301Z,983.55
2018-09-30T12:01:01.330Z,983.55
2018-09-30T12:02:01.226Z,983.52
2018-09-30T12:03:01.192Z,983.48
2018-09-30T12:04:01.160Z,983.46
2018-09-30T12:05:01.125Z,983.45
2018-09-30T12:06:01.089Z,983.45
2018-09-30T12:07:01.052Z,983.46
2018-09-30T12:08:01.015Z,983.47
2018-09-30T12:09:00.977Z,983.46
2018-09-30T12:10:00.945Z,983.43
2018-09-30T12:11:00.908Z,983.44
2018-09-30T12:12:00.875Z,983.42
2018-09-30T12:13:00.841Z,983.47
2018-09-30T12:14:00.805Z,983.46
2018-09-30T12:15:00.769Z,983.44
2018-09-30T12:16:00.733Z,983.40
2018-09-30T12:17:00.695Z,983.39
2018-09-30T12:18:00.668Z,983.38
2018-09-30T12:19:00.627Z,983.34
2018-09-30T12:20:00.590Z,983.33
2018-09-30T12:21:00.554Z,983.33
2018-09-30T12:22:00.518Z,983.32
2018-09-30T12:23:00.483Z,983.33
2018-09-30T12:24:00.451Z,983.31
2018-09-30T12:25:00.418Z,983.35
2018-09-30T12:26:00.382Z,983.32
2018-09-30T12:27:00.347Z,983.29
2018-09-30T12:28:00.307Z,983.25
2018-09-30T12:29:00.271Z,983.23
2018-09-30T12:30:00.236Z,983.17
2018-09-30T12:31:00.204Z,983.17
2018-09-30T12:32:00.169Z,983.18
2018-09-30T12:33:00.139Z,983.14
2018-09-30T12:34:00.094Z,983.15
2018-09-30T12:35:00.062Z,983.12
2018-09-30T12:36:00.032Z,983.13
2018-09-30T12:36:59.995Z,983.13
2018-09-30T12:37:59.959Z,983.13
2018-09-30T12:38:59.922Z,983.13
2018-09-30T12:39:59.887Z,983.11
2018-09-30T12:40:59.855Z,983.13
2018-09-30T12:41:59.813Z,983.08
2018-09-30T12:42:59.780Z,983.12
2018-09-30T12:43:59.751Z,983.07
2018-09-30T12:44:59.714Z,983.05
2018-09-30T12:45:59.678Z,983.07
2018-09-30T12:46:59.641Z,983.07
2018-09-30T12:47:59.603Z,983.03
2018-09-30T12:48:59.567Z,983.01
2018-09-30T12:49:59.544Z,982.95
2018-09-30T12:50:59.501Z,982.93
2018-09-30T12:51:59.471Z,982.97
2018-09-30T12:52:59.429Z,982.94
2018-09-30T12:53:59.403Z,982.86
2018-09-30T12:54:59.367Z,982.85